sensor_id;sensor_type;location;lat;lon;timestamp;P1;durP1;ratioP1;P2;durP2;ratioP2
25922;SDS011;13725;51.170;4.442;2022-10-16T00:01:10;3.22;;;1.65;;
25922;SDS011;13725;51.170;4.442;2022-10-16T00:03:38;3.45;;;1.50;;
25922;SDS011;13725;51.170;4.442;2022-10-16T00:06:06;2.45;;;1.50;;
25922;SDS011;13725;51.170;4.442;2022-10-16T00:08:32;2.35;;;1.80;;
25922;SDS011;13725;51.170;4.442;2022-10-16T00:11:18;3.53;;;1.55;;
25922;SDS011;13725;51.170;4.442;2022-10-16T00:13:47;3.08;;;1.58;;
25922;SDS011;13725;51.170;4.442;2022-10-16T00:16:13;4.28;;;1.50;;
25922;SDS011;13725;51.170;4.442;2022-10-16T00:18:41;2.65;;;1.40;;
25922;SDS011;13725;51.170;4.442;2022-10-16T00:21:09;1.60;;;1.42;;
25922;SDS011;13725;51.170;4.442;2022-10-16T00:23:39;1.60;;;1.50;;
25922;SDS011;13725;51.170;4.442;2022-10-16T00:26:07;2.85;;;1.40;;
25922;SDS011;13725;51.170;4.442;2022-10-16T00:28:34;3.53;;;1.67;;
25922;SDS011;13725;51.170;4.442;2022-10-16T00:31:07;2.97;;;1.30;;
25922;SDS011;13725;51.170;4.442;2022-10-16T00:33:35;2.55;;;1.30;;
25922;SDS011;13725;51.170;4.442;2022-10-16T00:36:02;3.42;;;1.17;;
25922;SDS011;13725;51.170;4.442;2022-10-16T00:38:29;2.72;;;1.23;;
25922;SDS011;13725;51.170;4.442;2022-10-16T00:40:55;2.72;;;1.40;;
25922;SDS011;13725;51.170;4.442;2022-10-16T00:46:13;3.08;;;1.48;;
25922;SDS011;13725;51.170;4.442;2022-10-16T00:49:09;1.20;;;1.10;;
25922;SDS011;13725;51.170;4.442;2022-10-16T00:51:37;3.80;;;1.05;;
25922;SDS011;13725;51.170;4.442;2022-10-16T00:54:10;4.70;;;1.42;;
25922;SDS011;13725;51.170;4.442;2022-10-16T00:56:39;4.78;;;1.02;;
25922;SDS011;13725;51.170;4.442;2022-10-16T00:59:07;1.33;;;1.05;;
25922;SDS011;13725;51.170;4.442;2022-10-16T01:04:08;5.40;;;1.75;;
25922;SDS011;13725;51.170;4.442;2022-10-16T01:09:35;3.88;;;1.40;;
25922;SDS011;13725;51.170;4.442;2022-10-16T01:12:10;3.42;;;1.48;;
25922;SDS011;13725;51.170;4.442;2022-10-16T01:17:14;6.05;;;1.77;;
25922;SDS011;13725;51.170;4.442;2022-10-16T01:20:45;1.42;;;1.08;;
25922;SDS011;13725;51.170;4.442;2022-10-16T01:25:37;1.60;;;1.23;;
25922;SDS011;13725;51.170;4.442;2022-10-16T01:28:27;1.27;;;1.13;;
25922;SDS011;13725;51.170;4.442;2022-10-16T01:30:58;2.70;;;1.30;;
25922;SDS011;13725;51.170;4.442;2022-10-16T01:33:27;2.78;;;1.60;;
25922;SDS011;13725;51.170;4.442;2022-10-16T01:36:05;1.45;;;1.30;;
25922;SDS011;13725;51.170;4.442;2022-10-16T01:38:44;1.88;;;1.30;;
25922;SDS011;13725;51.170;4.442;2022-10-16T01:41:33;1.40;;;1.25;;
25922;SDS011;13725;51.170;4.442;2022-10-16T01:46:33;4.07;;;1.35;;
25922;SDS011;13725;51.170;4.442;2022-10-16T01:49:03;5.22;;;1.63;;
25922;SDS011;13725;51.170;4.442;2022-10-16T01:51:30;1.58;;;1.15;;
25922;SDS011;13725;51.170;4.442;2022-10-16T01:53:58;5.75;;;1.45;;
25922;SDS011;13725;51.170;4.442;2022-10-16T01:56:26;2.78;;;1.30;;
25922;SDS011;13725;51.170;4.442;2022-10-16T01:58:55;3.80;;;1.40;;
25922;SDS011;13725;51.170;4.442;2022-10-16T02:01:28;2.17;;;1.52;;
25922;SDS011;13725;51.170;4.442;2022-10-16T02:03:57;2.28;;;1.35;;
25922;SDS011;13725;51.170;4.442;2022-10-16T02:06:26;5.07;;;1.73;;
25922;SDS011;13725;51.170;4.442;2022-10-16T02:08:53;5.15;;;1.40;;
25922;SDS011;13725;51.170;4.442;2022-10-16T02:11:19;2.75;;;1.25;;
25922;SDS011;13725;51.170;4.442;2022-10-16T02:16:37;3.97;;;2.55;;
25922;SDS011;13725;51.170;4.442;2022-10-16T02:19:11;3.05;;;1.83;;
25922;SDS011;13725;51.170;4.442;2022-10-16T02:24:35;4.13;;;1.50;;
25922;SDS011;13725;51.170;4.442;2022-10-16T02:27:19;2.40;;;1.50;;
25922;SDS011;13725;51.170;4.442;2022-10-16T02:30:01;1.88;;;1.40;;
25922;SDS011;13725;51.170;4.442;2022-10-16T02:32:38;3.58;;;1.85;;
25922;SDS011;13725;51.170;4.442;2022-10-16T02:35:07;3.85;;;1.75;;
25922;SDS011;13725;51.170;4.442;2022-10-16T02:37:33;2.45;;;1.45;;
25922;SDS011;13725;51.170;4.442;2022-10-16T02:39:59;5.72;;;2.42;;
25922;SDS011;13725;51.170;4.442;2022-10-16T02:42:29;3.38;;;1.80;;
25922;SDS011;13725;51.170;4.442;2022-10-16T02:44:59;6.20;;;1.60;;
25922;SDS011;13725;51.170;4.442;2022-10-16T02:47:25;4.35;;;1.55;;
25922;SDS011;13725;51.170;4.442;2022-10-16T02:49:51;3.30;;;1.30;;
25922;SDS011;13725;51.170;4.442;2022-10-16T02:52:16;5.65;;;2.00;;
25922;SDS011;13725;51.170;4.442;2022-10-16T02:54:43;2.88;;;1.60;;
25922;SDS011;13725;51.170;4.442;2022-10-16T02:57:09;6.95;;;1.60;;
25922;SDS011;13725;51.170;4.442;2022-10-16T02:59:34;2.80;;;1.65;;
25922;SDS011;13725;51.170;4.442;2022-10-16T03:02:00;3.28;;;1.73;;
25922;SDS011;13725;51.170;4.442;2022-10-16T03:04:26;7.00;;;1.73;;
25922;SDS011;13725;51.170;4.442;2022-10-16T03:06:52;5.20;;;2.15;;
25922;SDS011;13725;51.170;4.442;2022-10-16T03:09:17;4.57;;;1.58;;
25922;SDS011;13725;51.170;4.442;2022-10-16T03:11:43;3.03;;;2.00;;
25922;SDS011;13725;51.170;4.442;2022-10-16T03:14:09;5.53;;;1.67;;
25922;SDS011;13725;51.170;4.442;2022-10-16T03:16:34;8.57;;;2.90;;
25922;SDS011;13725;51.170;4.442;2022-10-16T03:19:00;3.78;;;1.60;;
25922;SDS011;13725;51.170;4.442;2022-10-16T03:21:26;5.22;;;1.92;;
25922;SDS011;13725;51.170;4.442;2022-10-16T03:23:52;4.15;;;1.58;;
25922;SDS011;13725;51.170;4.442;2022-10-16T03:26:17;4.93;;;2.33;;
25922;SDS011;13725;51.170;4.442;2022-10-16T03:28:43;2.88;;;2.17;;
25922;SDS011;13725;51.170;4.442;2022-10-16T03:31:10;3.63;;;1.60;;
25922;SDS011;13725;51.170;4.442;2022-10-16T03:33:35;4.00;;;1.80;;
25922;SDS011;13725;51.170;4.442;2022-10-16T03:36:01;6.50;;;2.20;;
25922;SDS011;13725;51.170;4.442;2022-10-16T03:38:27;4.15;;;1.90;;
25922;SDS011;13725;51.170;4.442;2022-10-16T03:40:53;6.13;;;2.30;;
25922;SDS011;13725;51.170;4.442;2022-10-16T03:43:19;3.28;;;2.20;;
25922;SDS011;13725;51.170;4.442;2022-10-16T03:45:44;3.13;;;2.03;;
25922;SDS011;13725;51.170;4.442;2022-10-16T03:48:10;6.07;;;1.73;;
25922;SDS011;13725;51.170;4.442;2022-10-16T03:50:37;1.83;;;1.60;;
25922;SDS011;13725;51.170;4.442;2022-10-16T03:53:03;6.93;;;1.90;;
25922;SDS011;13725;51.170;4.442;2022-10-16T03:55:29;3.75;;;1.95;;
25922;SDS011;13725;51.170;4.442;2022-10-16T03:57:54;2.58;;;1.73;;
25922;SDS011;13725;51.170;4.442;2022-10-16T04:00:20;2.45;;;1.52;;
25922;SDS011;13725;51.170;4.442;2022-10-16T04:02:46;3.20;;;1.60;;
25922;SDS011;13725;51.170;4.442;2022-10-16T04:05:12;4.63;;;2.45;;
25922;SDS011;13725;51.170;4.442;2022-10-16T04:07:37;3.45;;;1.80;;
25922;SDS011;13725;51.170;4.442;2022-10-16T04:10:03;2.30;;;1.70;;
25922;SDS011;13725;51.170;4.442;2022-10-16T04:12:29;2.90;;;2.17;;
25922;SDS011;13725;51.170;4.442;2022-10-16T04:14:55;2.60;;;1.80;;
25922;SDS011;13725;51.170;4.442;2022-10-16T04:17:20;2.47;;;1.73;;
25922;SDS011;13725;51.170;4.442;2022-10-16T04:19:46;7.05;;;2.13;;
25922;SDS011;13725;51.170;4.442;2022-10-16T04:22:12;6.20;;;1.67;;
25922;SDS011;13725;51.170;4.442;2022-10-16T04:24:38;3.33;;;1.98;;
25922;SDS011;13725;51.170;4.442;2022-10-16T04:27:04;2.45;;;1.90;;
25922;SDS011;13725;51.170;4.442;2022-10-16T04:29:29;2.65;;;1.80;;
25922;SDS011;13725;51.170;4.442;2022-10-16T04:31:55;4.97;;;2.00;;
25922;SDS011;13725;51.170;4.442;2022-10-16T04:34:21;4.85;;;1.92;;
25922;SDS011;13725;51.170;4.442;2022-10-16T04:36:47;3.47;;;1.85;;
25922;SDS011;13725;51.170;4.442;2022-10-16T04:39:15;7.57;;;2.33;;
25922;SDS011;13725;51.170;4.442;2022-10-16T04:41:42;3.97;;;1.95;;
25922;SDS011;13725;51.170;4.442;2022-10-16T04:44:07;10.20;;;2.20;;
25922;SDS011;13725;51.170;4.442;2022-10-16T04:46:33;5.18;;;2.10;;
25922;SDS011;13725;51.170;4.442;2022-10-16T04:48:59;5.88;;;2.30;;
25922;SDS011;13725;51.170;4.442;2022-10-16T04:51:25;5.90;;;1.95;;
25922;SDS011;13725;51.170;4.442;2022-10-16T04:53:52;4.00;;;2.00;;
25922;SDS011;13725;51.170;4.442;2022-10-16T04:56:19;4.00;;;1.98;;
25922;SDS011;13725;51.170;4.442;2022-10-16T04:58:46;4.97;;;2.30;;
25922;SDS011;13725;51.170;4.442;2022-10-16T05:01:12;7.30;;;2.47;;
25922;SDS011;13725;51.170;4.442;2022-10-16T05:03:38;4.47;;;2.08;;
25922;SDS011;13725;51.170;4.442;2022-10-16T05:06:05;6.88;;;2.13;;
25922;SDS011;13725;51.170;4.442;2022-10-16T05:08:31;9.35;;;2.53;;
25922;SDS011;13725;51.170;4.442;2022-10-16T05:10:57;4.47;;;2.05;;
25922;SDS011;13725;51.170;4.442;2022-10-16T05:13:23;6.10;;;1.98;;
25922;SDS011;13725;51.170;4.442;2022-10-16T05:15:49;5.50;;;2.35;;
25922;SDS011;13725;51.170;4.442;2022-10-16T05:18:15;4.93;;;2.25;;
25922;SDS011;13725;51.170;4.442;2022-10-16T05:20:41;7.90;;;2.20;;
25922;SDS011;13725;51.170;4.442;2022-10-16T05:23:07;2.72;;;1.95;;
25922;SDS011;13725;51.170;4.442;2022-10-16T05:25:35;5.93;;;2.38;;
25922;SDS011;13725;51.170;4.442;2022-10-16T05:28:01;8.18;;;2.42;;
25922;SDS011;13725;51.170;4.442;2022-10-16T05:30:27;4.43;;;2.30;;
25922;SDS011;13725;51.170;4.442;2022-10-16T05:32:53;4.32;;;2.20;;
25922;SDS011;13725;51.170;4.442;2022-10-16T05:35:19;9.70;;;2.70;;
25922;SDS011;13725;51.170;4.442;2022-10-16T05:37:45;10.20;;;2.38;;
25922;SDS011;13725;51.170;4.442;2022-10-16T05:40:11;3.75;;;2.38;;
25922;SDS011;13725;51.170;4.442;2022-10-16T05:42:38;8.73;;;2.50;;
25922;SDS011;13725;51.170;4.442;2022-10-16T05:45:07;5.45;;;2.00;;
25922;SDS011;13725;51.170;4.442;2022-10-16T05:47:35;11.23;;;3.42;;
25922;SDS011;13725;51.170;4.442;2022-10-16T05:50:00;2.55;;;1.85;;
25922;SDS011;13725;51.170;4.442;2022-10-16T05:52:26;7.45;;;2.17;;
25922;SDS011;13725;51.170;4.442;2022-10-16T05:54:52;7.68;;;2.65;;
25922;SDS011;13725;51.170;4.442;2022-10-16T05:57:18;8.70;;;2.35;;
25922;SDS011;13725;51.170;4.442;2022-10-16T05:59:44;6.80;;;2.38;;
25922;SDS011;13725;51.170;4.442;2022-10-16T06:02:13;6.25;;;2.40;;
25922;SDS011;13725;51.170;4.442;2022-10-16T06:04:39;6.80;;;2.78;;
25922;SDS011;13725;51.170;4.442;2022-10-16T06:07:05;6.00;;;2.42;;
25922;SDS011;13725;51.170;4.442;2022-10-16T06:09:30;8.63;;;2.30;;
25922;SDS011;13725;51.170;4.442;2022-10-16T06:11:56;6.13;;;2.63;;
25922;SDS011;13725;51.170;4.442;2022-10-16T06:14:22;5.40;;;3.03;;
25922;SDS011;13725;51.170;4.442;2022-10-16T06:16:48;5.13;;;2.50;;
25922;SDS011;13725;51.170;4.442;2022-10-16T06:19:13;3.53;;;2.20;;
25922;SDS011;13725;51.170;4.442;2022-10-16T06:21:41;6.00;;;2.10;;
25922;SDS011;13725;51.170;4.442;2022-10-16T06:24:07;6.20;;;2.20;;
25922;SDS011;13725;51.170;4.442;2022-10-16T06:26:33;6.40;;;2.30;;
25922;SDS011;13725;51.170;4.442;2022-10-16T06:28:59;6.03;;;2.30;;
25922;SDS011;13725;51.170;4.442;2022-10-16T06:31:25;4.18;;;2.28;;
25922;SDS011;13725;51.170;4.442;2022-10-16T06:33:55;7.90;;;2.47;;
25922;SDS011;13725;51.170;4.442;2022-10-16T06:36:22;10.18;;;2.40;;
25922;SDS011;13725;51.170;4.442;2022-10-16T06:38:49;8.68;;;2.20;;
25922;SDS011;13725;51.170;4.442;2022-10-16T06:41:16;4.97;;;2.50;;
25922;SDS011;13725;51.170;4.442;2022-10-16T06:43:42;5.57;;;2.83;;
25922;SDS011;13725;51.170;4.442;2022-10-16T06:46:10;4.95;;;2.47;;
25922;SDS011;13725;51.170;4.442;2022-10-16T06:48:37;9.60;;;2.55;;
25922;SDS011;13725;51.170;4.442;2022-10-16T06:51:09;6.10;;;2.28;;
25922;SDS011;13725;51.170;4.442;2022-10-16T06:53:43;5.65;;;2.30;;
25922;SDS011;13725;51.170;4.442;2022-10-16T06:56:12;5.32;;;2.90;;
25922;SDS011;13725;51.170;4.442;2022-10-16T06:58:39;7.15;;;2.40;;
25922;SDS011;13725;51.170;4.442;2022-10-16T07:01:05;6.05;;;2.53;;
25922;SDS011;13725;51.170;4.442;2022-10-16T07:03:35;4.90;;;2.05;;
25922;SDS011;13725;51.170;4.442;2022-10-16T07:06:02;5.18;;;2.17;;
25922;SDS011;13725;51.170;4.442;2022-10-16T07:08:35;6.13;;;2.25;;
25922;SDS011;13725;51.170;4.442;2022-10-16T07:11:04;7.18;;;2.50;;
25922;SDS011;13725;51.170;4.442;2022-10-16T07:13:35;3.97;;;2.13;;
25922;SDS011;13725;51.170;4.442;2022-10-16T07:18:35;6.15;;;2.00;;
25922;SDS011;13725;51.170;4.442;2022-10-16T07:21:04;4.18;;;2.65;;
25922;SDS011;13725;51.170;4.442;2022-10-16T07:23:32;5.00;;;2.60;;
25922;SDS011;13725;51.170;4.442;2022-10-16T07:25:58;3.15;;;1.92;;
25922;SDS011;13725;51.170;4.442;2022-10-16T07:28:23;4.93;;;2.15;;
25922;SDS011;13725;51.170;4.442;2022-10-16T07:30:49;4.38;;;2.30;;
25922;SDS011;13725;51.170;4.442;2022-10-16T07:33:15;3.45;;;1.73;;
25922;SDS011;13725;51.170;4.442;2022-10-16T07:35:48;7.80;;;2.85;;
25922;SDS011;13725;51.170;4.442;2022-10-16T07:38:17;6.07;;;2.05;;
25922;SDS011;13725;51.170;4.442;2022-10-16T07:40:43;5.47;;;1.90;;
25922;SDS011;13725;51.170;4.442;2022-10-16T07:43:09;5.40;;;2.15;;
25922;SDS011;13725;51.170;4.442;2022-10-16T07:45:35;3.67;;;1.60;;
25922;SDS011;13725;51.170;4.442;2022-10-16T07:48:00;4.10;;;1.83;;
25922;SDS011;13725;51.170;4.442;2022-10-16T07:50:26;6.55;;;2.10;;
25922;SDS011;13725;51.170;4.442;2022-10-16T07:52:52;5.25;;;2.05;;
25922;SDS011;13725;51.170;4.442;2022-10-16T07:55:17;4.88;;;1.52;;
25922;SDS011;13725;51.170;4.442;2022-10-16T07:57:43;5.28;;;1.88;;
25922;SDS011;13725;51.170;4.442;2022-10-16T08:00:09;4.30;;;2.40;;
25922;SDS011;13725;51.170;4.442;2022-10-16T08:02:39;2.38;;;1.20;;
25922;SDS011;13725;51.170;4.442;2022-10-16T08:05:05;4.78;;;1.55;;
25922;SDS011;13725;51.170;4.442;2022-10-16T08:07:32;3.08;;;1.30;;
25922;SDS011;13725;51.170;4.442;2022-10-16T08:09:58;2.47;;;1.25;;
25922;SDS011;13725;51.170;4.442;2022-10-16T08:12:24;3.60;;;1.10;;
25922;SDS011;13725;51.170;4.442;2022-10-16T08:14:50;4.22;;;1.30;;
25922;SDS011;13725;51.170;4.442;2022-10-16T08:17:16;2.50;;;1.15;;
25922;SDS011;13725;51.170;4.442;2022-10-16T08:19:45;2.78;;;1.00;;
25922;SDS011;13725;51.170;4.442;2022-10-16T08:22:12;2.22;;;1.08;;
25922;SDS011;13725;51.170;4.442;2022-10-16T08:24:39;1.45;;;1.25;;
25922;SDS011;13725;51.170;4.442;2022-10-16T08:27:05;4.68;;;1.20;;
25922;SDS011;13725;51.170;4.442;2022-10-16T08:29:31;4.68;;;1.08;;
25922;SDS011;13725;51.170;4.442;2022-10-16T08:31:56;5.82;;;1.52;;
25922;SDS011;13725;51.170;4.442;2022-10-16T08:34:22;2.13;;;0.88;;
25922;SDS011;13725;51.170;4.442;2022-10-16T08:36:48;5.88;;;1.70;;
25922;SDS011;13725;51.170;4.442;2022-10-16T08:39:13;3.83;;;1.10;;
25922;SDS011;13725;51.170;4.442;2022-10-16T08:44:24;2.50;;;0.90;;
25922;SDS011;13725;51.170;4.442;2022-10-16T08:46:59;6.32;;;1.60;;
25922;SDS011;13725;51.170;4.442;2022-10-16T08:50:31;3.47;;;0.90;;
25922;SDS011;13725;51.170;4.442;2022-10-16T08:52:35;3.33;;;0.90;;
25922;SDS011;13725;51.170;4.442;2022-10-16T08:55:05;2.30;;;0.90;;
25922;SDS011;13725;51.170;4.442;2022-10-16T08:57:31;3.53;;;1.27;;
25922;SDS011;13725;51.170;4.442;2022-10-16T08:59:59;4.78;;;1.13;;
25922;SDS011;13725;51.170;4.442;2022-10-16T09:02:35;3.40;;;1.30;;
25922;SDS011;13725;51.170;4.442;2022-10-16T09:05:22;2.58;;;1.00;;
25922;SDS011;13725;51.170;4.442;2022-10-16T09:07:52;2.78;;;1.02;;
25922;SDS011;13725;51.170;4.442;2022-10-16T09:10:56;8.13;;;1.45;;
25922;SDS011;13725;51.170;4.442;2022-10-16T09:16:28;2.13;;;1.00;;
25922;SDS011;13725;51.170;4.442;2022-10-16T09:19:04;3.40;;;1.20;;
25922;SDS011;13725;51.170;4.442;2022-10-16T09:21:45;2.97;;;0.90;;
25922;SDS011;13725;51.170;4.442;2022-10-16T09:24:13;2.58;;;0.80;;
25922;SDS011;13725;51.170;4.442;2022-10-16T09:26:41;4.03;;;1.10;;
25922;SDS011;13725;51.170;4.442;2022-10-16T09:29:11;3.72;;;0.90;;
25922;SDS011;13725;51.170;4.442;2022-10-16T09:31:38;3.40;;;1.00;;
25922;SDS011;13725;51.170;4.442;2022-10-16T09:34:04;3.47;;;0.88;;
25922;SDS011;13725;51.170;4.442;2022-10-16T09:36:40;3.63;;;1.00;;
25922;SDS011;13725;51.170;4.442;2022-10-16T09:39:10;4.47;;;1.33;;
25922;SDS011;13725;51.170;4.442;2022-10-16T09:41:37;5.80;;;1.10;;
25922;SDS011;13725;51.170;4.442;2022-10-16T09:44:28;1.47;;;0.97;;
25922;SDS011;13725;51.170;4.442;2022-10-16T09:47:02;2.13;;;0.95;;
25922;SDS011;13725;51.170;4.442;2022-10-16T09:49:39;4.18;;;1.00;;
25922;SDS011;13725;51.170;4.442;2022-10-16T09:52:20;5.32;;;1.25;;
25922;SDS011;13725;51.170;4.442;2022-10-16T09:54:51;7.07;;;1.25;;
25922;SDS011;13725;51.170;4.442;2022-10-16T09:57:21;6.22;;;1.67;;
25922;SDS011;13725;51.170;4.442;2022-10-16T09:59:48;6.22;;;1.40;;
25922;SDS011;13725;51.170;4.442;2022-10-16T10:02:17;5.18;;;1.30;;
25922;SDS011;13725;51.170;4.442;2022-10-16T10:04:54;2.90;;;0.90;;
25922;SDS011;13725;51.170;4.442;2022-10-16T10:07:28;4.82;;;1.38;;
25922;SDS011;13725;51.170;4.442;2022-10-16T10:10:00;3.83;;;1.10;;
25922;SDS011;13725;51.170;4.442;2022-10-16T10:12:29;3.30;;;1.00;;
25922;SDS011;13725;51.170;4.442;2022-10-16T10:14:58;5.80;;;1.40;;
25922;SDS011;13725;51.170;4.442;2022-10-16T10:17:44;4.95;;;1.08;;
25922;SDS011;13725;51.170;4.442;2022-10-16T10:20:26;4.18;;;1.20;;
25922;SDS011;13725;51.170;4.442;2022-10-16T10:23:00;6.68;;;1.30;;
25922;SDS011;13725;51.170;4.442;2022-10-16T10:50:38;4.28;;;1.35;;
25922;SDS011;13725;51.170;4.442;2022-10-16T10:53:18;9.90;;;1.30;;
25922;SDS011;13725;51.170;4.442;2022-10-16T11:01:44;4.97;;;1.30;;
25922;SDS011;13725;51.170;4.442;2022-10-16T11:09:28;5.47;;;1.35;;
25922;SDS011;13725;51.170;4.442;2022-10-16T11:12:11;5.20;;;1.25;;
25922;SDS011;13725;51.170;4.442;2022-10-16T11:17:18;2.83;;;1.33;;
25922;SDS011;13725;51.170;4.442;2022-10-16T11:19:52;6.90;;;1.20;;
25922;SDS011;13725;51.170;4.442;2022-10-16T11:28:29;9.15;;;1.60;;
25922;SDS011;13725;51.170;4.442;2022-10-16T11:33:56;7.03;;;1.63;;
25922;SDS011;13725;51.170;4.442;2022-10-16T11:36:42;4.55;;;1.17;;
25922;SDS011;13725;51.170;4.442;2022-10-16T11:39:18;3.72;;;1.02;;
25922;SDS011;13725;51.170;4.442;2022-10-16T11:42:10;7.00;;;1.70;;
25922;SDS011;13725;51.170;4.442;2022-10-16T11:50:40;3.95;;;1.08;;
25922;SDS011;13725;51.170;4.442;2022-10-16T11:55:56;3.13;;;1.10;;
25922;SDS011;13725;51.170;4.442;2022-10-16T11:58:40;6.43;;;1.60;;
25922;SDS011;13725;51.170;4.442;2022-10-16T12:04:33;5.82;;;1.52;;
25922;SDS011;13725;51.170;4.442;2022-10-16T12:07:11;7.05;;;1.05;;
25922;SDS011;13725;51.170;4.442;2022-10-16T12:09:42;3.35;;;0.93;;
25922;SDS011;13725;51.170;4.442;2022-10-16T12:12:24;7.25;;;1.40;;
25922;SDS011;13725;51.170;4.442;2022-10-16T12:17:37;3.05;;;0.95;;
25922;SDS011;13725;51.170;4.442;2022-10-16T12:25:21;3.58;;;1.20;;
25922;SDS011;13725;51.170;4.442;2022-10-16T12:27:53;4.45;;;1.00;;
25922;SDS011;13725;51.170;4.442;2022-10-16T12:30:22;4.63;;;1.13;;
25922;SDS011;13725;51.170;4.442;2022-10-16T12:33:24;2.17;;;0.75;;
25922;SDS011;13725;51.170;4.442;2022-10-16T12:35:50;3.20;;;0.90;;
25922;SDS011;13725;51.170;4.442;2022-10-16T12:40:44;4.88;;;0.93;;
25922;SDS011;13725;51.170;4.442;2022-10-16T12:43:24;5.38;;;1.50;;
25922;SDS011;13725;51.170;4.442;2022-10-16T12:46:01;3.17;;;0.90;;
25922;SDS011;13725;51.170;4.442;2022-10-16T12:48:30;4.43;;;1.17;;
25922;SDS011;13725;51.170;4.442;2022-10-16T12:50:56;2.13;;;1.00;;
25922;SDS011;13725;51.170;4.442;2022-10-16T12:53:23;2.78;;;1.02;;
25922;SDS011;13725;51.170;4.442;2022-10-16T12:56:03;2.63;;;1.02;;
25922;SDS011;13725;51.170;4.442;2022-10-16T13:01:40;3.17;;;0.98;;
25922;SDS011;13725;51.170;4.442;2022-10-16T13:04:31;3.10;;;0.90;;
25922;SDS011;13725;51.170;4.442;2022-10-16T13:18:32;3.00;;;0.90;;
25922;SDS011;13725;51.170;4.442;2022-10-16T13:21:14;4.13;;;0.80;;
25922;SDS011;13725;51.170;4.442;2022-10-16T13:24:07;4.05;;;0.80;;
25922;SDS011;13725;51.170;4.442;2022-10-16T13:29:14;3.08;;;0.80;;
25922;SDS011;13725;51.170;4.442;2022-10-16T13:31:41;3.47;;;0.90;;
25922;SDS011;13725;51.170;4.442;2022-10-16T13:34:14;2.60;;;0.80;;
25922;SDS011;13725;51.170;4.442;2022-10-16T13:36:47;2.75;;;0.55;;
25922;SDS011;13725;51.170;4.442;2022-10-16T13:39:23;2.38;;;0.77;;
25922;SDS011;13725;51.170;4.442;2022-10-16T13:44:39;3.50;;;1.00;;
25922;SDS011;13725;51.170;4.442;2022-10-16T13:47:41;4.45;;;0.60;;
25922;SDS011;13725;51.170;4.442;2022-10-16T13:52:38;2.95;;;0.90;;
25922;SDS011;13725;51.170;4.442;2022-10-16T13:55:13;3.22;;;0.70;;
25922;SDS011;13725;51.170;4.442;2022-10-16T13:57:41;3.85;;;0.80;;
25922;SDS011;13725;51.170;4.442;2022-10-16T14:03:03;2.67;;;0.63;;
25922;SDS011;13725;51.170;4.442;2022-10-16T14:05:42;1.48;;;0.77;;
25922;SDS011;13725;51.170;4.442;2022-10-16T14:08:13;4.72;;;1.48;;
25922;SDS011;13725;51.170;4.442;2022-10-16T14:10:38;4.38;;;0.80;;
25922;SDS011;13725;51.170;4.442;2022-10-16T14:13:05;1.83;;;0.85;;
25922;SDS011;13725;51.170;4.442;2022-10-16T14:15:34;3.97;;;0.90;;
25922;SDS011;13725;51.170;4.442;2022-10-16T14:18:01;3.97;;;0.88;;
25922;SDS011;13725;51.170;4.442;2022-10-16T14:20:32;5.07;;;0.60;;
25922;SDS011;13725;51.170;4.442;2022-10-16T14:23:00;7.68;;;1.15;;
25922;SDS011;13725;51.170;4.442;2022-10-16T14:25:41;3.00;;;0.70;;
25922;SDS011;13725;51.170;4.442;2022-10-16T14:30:58;5.25;;;1.48;;
25922;SDS011;13725;51.170;4.442;2022-10-16T14:36:13;3.58;;;1.50;;
25922;SDS011;13725;51.170;4.442;2022-10-16T14:38:41;3.63;;;1.20;;
25922;SDS011;13725;51.170;4.442;2022-10-16T14:41:13;7.20;;;3.00;;
25922;SDS011;13725;51.170;4.442;2022-10-16T14:43:41;7.63;;;2.40;;
25922;SDS011;13725;51.170;4.442;2022-10-16T14:46:12;2.45;;;1.05;;
25922;SDS011;13725;51.170;4.442;2022-10-16T14:48:41;1.20;;;0.73;;
25922;SDS011;13725;51.170;4.442;2022-10-16T14:51:19;4.22;;;1.20;;
25922;SDS011;13725;51.170;4.442;2022-10-16T14:53:45;4.50;;;1.20;;
25922;SDS011;13725;51.170;4.442;2022-10-16T14:56:18;1.63;;;0.70;;
25922;SDS011;13725;51.170;4.442;2022-10-16T14:58:46;2.35;;;1.00;;
25922;SDS011;13725;51.170;4.442;2022-10-16T15:01:12;2.13;;;0.80;;
25922;SDS011;13725;51.170;4.442;2022-10-16T15:03:38;4.18;;;1.00;;
25922;SDS011;13725;51.170;4.442;2022-10-16T15:06:08;2.55;;;0.80;;
25922;SDS011;13725;51.170;4.442;2022-10-16T15:08:36;1.35;;;0.57;;
25922;SDS011;13725;51.170;4.442;2022-10-16T15:11:01;4.72;;;1.23;;
25922;SDS011;13725;51.170;4.442;2022-10-16T15:13:27;3.38;;;0.98;;
25922;SDS011;13725;51.170;4.442;2022-10-16T15:15:53;5.68;;;1.80;;
25922;SDS011;13725;51.170;4.442;2022-10-16T15:18:18;5.28;;;2.40;;
25922;SDS011;13725;51.170;4.442;2022-10-16T15:20:47;4.78;;;1.75;;
25922;SDS011;13725;51.170;4.442;2022-10-16T15:23:15;2.42;;;1.00;;
25922;SDS011;13725;51.170;4.442;2022-10-16T15:25:43;2.75;;;1.05;;
25922;SDS011;13725;51.170;4.442;2022-10-16T15:28:19;4.75;;;1.60;;
25922;SDS011;13725;51.170;4.442;2022-10-16T15:30:46;3.78;;;1.77;;
25922;SDS011;13725;51.170;4.442;2022-10-16T15:33:15;3.67;;;1.27;;
25922;SDS011;13725;51.170;4.442;2022-10-16T15:35:45;3.50;;;1.50;;
25922;SDS011;13725;51.170;4.442;2022-10-16T15:38:13;5.05;;;1.60;;
25922;SDS011;13725;51.170;4.442;2022-10-16T15:40:40;8.27;;;2.30;;
25922;SDS011;13725;51.170;4.442;2022-10-16T15:43:06;8.15;;;2.67;;
25922;SDS011;13725;51.170;4.442;2022-10-16T15:45:32;6.15;;;1.77;;
25922;SDS011;13725;51.170;4.442;2022-10-16T15:47:58;8.52;;;2.30;;
25922;SDS011;13725;51.170;4.442;2022-10-16T15:50:24;5.82;;;1.90;;
25922;SDS011;13725;51.170;4.442;2022-10-16T15:52:50;8.63;;;4.82;;
25922;SDS011;13725;51.170;4.442;2022-10-16T15:55:16;4.45;;;2.28;;
25922;SDS011;13725;51.170;4.442;2022-10-16T15:57:44;4.55;;;2.13;;
25922;SDS011;13725;51.170;4.442;2022-10-16T16:00:11;7.32;;;2.90;;
25922;SDS011;13725;51.170;4.442;2022-10-16T16:02:43;10.68;;;4.28;;
25922;SDS011;13725;51.170;4.442;2022-10-16T16:05:14;7.78;;;3.05;;
25922;SDS011;13725;51.170;4.442;2022-10-16T16:07:40;4.82;;;2.40;;
25922;SDS011;13725;51.170;4.442;2022-10-16T16:10:07;4.65;;;2.47;;
25922;SDS011;13725;51.170;4.442;2022-10-16T16:12:34;4.88;;;2.10;;
25922;SDS011;13725;51.170;4.442;2022-10-16T16:15:00;4.60;;;2.30;;
25922;SDS011;13725;51.170;4.442;2022-10-16T16:17:26;3.63;;;2.30;;
25922;SDS011;13725;51.170;4.442;2022-10-16T16:19:52;5.65;;;2.80;;
25922;SDS011;13725;51.170;4.442;2022-10-16T16:22:19;6.88;;;2.90;;
25922;SDS011;13725;51.170;4.442;2022-10-16T16:24:45;7.35;;;2.50;;
25922;SDS011;13725;51.170;4.442;2022-10-16T16:27:11;4.18;;;2.13;;
25922;SDS011;13725;51.170;4.442;2022-10-16T16:29:38;6.80;;;2.05;;
25922;SDS011;13725;51.170;4.442;2022-10-16T16:32:04;5.00;;;1.90;;
25922;SDS011;13725;51.170;4.442;2022-10-16T16:34:30;4.32;;;2.05;;
25922;SDS011;13725;51.170;4.442;2022-10-16T16:36:56;9.73;;;2.15;;
25922;SDS011;13725;51.170;4.442;2022-10-16T16:39:22;4.25;;;1.98;;
25922;SDS011;13725;51.170;4.442;2022-10-16T16:41:48;4.18;;;1.70;;
25922;SDS011;13725;51.170;4.442;2022-10-16T16:44:15;4.40;;;1.80;;
25922;SDS011;13725;51.170;4.442;2022-10-16T16:46:42;7.97;;;2.90;;
25922;SDS011;13725;51.170;4.442;2022-10-16T16:49:09;8.15;;;2.78;;
25922;SDS011;13725;51.170;4.442;2022-10-16T16:51:37;5.68;;;2.92;;
25922;SDS011;13725;51.170;4.442;2022-10-16T16:54:03;6.65;;;2.50;;
25922;SDS011;13725;51.170;4.442;2022-10-16T16:56:29;7.05;;;2.40;;
25922;SDS011;13725;51.170;4.442;2022-10-16T16:58:55;7.13;;;2.40;;
25922;SDS011;13725;51.170;4.442;2022-10-16T17:01:22;5.38;;;2.85;;
25922;SDS011;13725;51.170;4.442;2022-10-16T17:03:50;7.10;;;3.42;;
25922;SDS011;13725;51.170;4.442;2022-10-16T17:06:22;7.13;;;3.65;;
25922;SDS011;13725;51.170;4.442;2022-10-16T17:08:50;7.65;;;3.00;;
25922;SDS011;13725;51.170;4.442;2022-10-16T17:11:17;6.65;;;2.60;;
25922;SDS011;13725;51.170;4.442;2022-10-16T17:13:49;5.35;;;2.72;;